Time;durP1;ratioP1;P1;durP2;ratioP2;P2;SDS_P1;SDS_P2;PMS_P1;PMS_P2;Temp;Humidity;BMP_temperature;BMP_pressure;BME280_temperature;BME280_humidity;BME280_pressure;Samples;Min_cycle;Max_cycle;Signal;HPM_P1;HPM_P2
2023/09/05 00:00:06;;;;;;;2.50;1.50;;;19.10;99.90;;;;;;5017571;28;20099;-78
2023/09/05 00:02:33;;;;;;;2.65;1.35;;;19.10;99.90;;;;;;5020637;28;20052;-79
2023/09/05 00:05:00;;;;;;;5.35;1.60;;;19.10;99.90;;;;;;5016456;28;20100;-79
2023/09/05 00:07:27;;;;;;;2.05;1.23;;;19.10;99.90;;;;;;5022163;28;20452;-79
2023/09/05 00:09:57;;;;;;;2.83;1.42;;;19.10;99.90;;;;;;5019484;28;20052;-79
2023/09/05 00:12:27;;;;;;;2.50;1.50;;;19.10;99.90;;;;;;5020428;28;20571;-79
2023/09/05 00:14:54;;;;;;;2.65;1.65;;;19.10;99.90;;;;;;5018588;28;20050;-79
2023/09/05 00:17:21;;;;;;;5.75;1.83;;;19.10;99.90;;;;;;5025146;28;20054;-79
2023/09/05 00:19:49;;;;;;;4.80;1.77;;;19.10;99.90;;;;;;5025769;28;20106;-79
2023/09/05 00:22:15;;;;;;;5.05;1.70;;;19.00;99.90;;;;;;5027464;28;20049;-79
2023/09/05 00:24:44;;;;;;;2.22;1.40;;;19.00;99.90;;;;;;5020545;28;20128;-79
2023/09/05 00:27:11;;;;;;;2.45;1.83;;;19.00;99.90;;;;;;5017646;28;20494;-79
2023/09/05 00:29:39;;;;;;;4.43;1.83;;;19.00;99.90;;;;;;4998955;28;20183;-77
2023/09/05 00:32:07;;;;;;;2.55;1.60;;;19.00;99.90;;;;;;5015646;28;20149;-79
2023/09/05 00:34:36;;;;;;;3.13;1.60;;;19.00;99.90;;;;;;5017565;28;20487;-79
2023/09/05 00:37:05;;;;;;;5.13;1.70;;;19.00;99.90;;;;;;5018315;28;20107;-78
2023/09/05 00:39:35;;;;;;;2.60;1.70;;;18.90;99.90;;;;;;5017772;28;20129;-79
2023/09/05 00:42:08;;;;;;;5.22;1.80;;;18.90;99.90;;;;;;5016642;28;20465;-78
2023/09/05 00:44:35;;;;;;;5.18;1.63;;;18.90;99.90;;;;;;5000539;28;20101;-79
2023/09/05 00:47:04;;;;;;;5.85;1.55;;;18.90;99.90;;;;;;5015208;28;20041;-77
2023/09/05 00:49:39;;;;;;;4.03;1.48;;;18.90;99.90;;;;;;5018099;28;20108;-78
2023/09/05 00:52:08;;;;;;;8.02;1.67;;;18.90;99.90;;;;;;5019807;28;20046;-78
2023/09/05 00:54:36;;;;;;;2.63;1.75;;;18.80;99.90;;;;;;5018328;28;20087;-78
2023/09/05 00:57:03;;;;;;;2.85;1.40;;;18.80;99.90;;;;;;5016979;28;20570;-78
2023/09/05 00:59:31;;;;;;;4.78;1.73;;;18.80;99.90;;;;;;5017960;28;20130;-78
2023/09/05 01:01:58;;;;;;;2.08;1.60;;;18.80;99.90;;;;;;5013460;28;20041;-78
2023/09/05 01:04:25;;;;;;;2.60;1.63;;;18.80;99.90;;;;;;5018191;28;20078;-79
2023/09/05 01:07:13;;;;;;;3.85;1.83;;;18.70;99.90;;;;;;5019656;28;20100;-78
2023/09/05 01:10:06;;;;;;;2.90;1.65;;;18.70;99.90;;;;;;5018005;28;20077;-79
2023/09/05 01:12:33;;;;;;;2.25;1.83;;;18.70;99.90;;;;;;5018238;28;20050;-78
2023/09/05 01:15:00;;;;;;;1.75;1.38;;;18.70;99.90;;;;;;5015935;28;20046;-79
2023/09/05 01:17:26;;;;;;;3.92;1.60;;;18.60;99.90;;;;;;5017635;28;20081;-79
2023/09/05 01:19:56;;;;;;;3.85;1.58;;;18.60;99.90;;;;;;5016277;28;20133;-79
2023/09/05 01:22:54;;;;;;;1.98;1.58;;;18.60;99.90;;;;;;5021000;28;20049;-78
2023/09/05 01:25:21;;;;;;;3.70;1.70;;;18.50;99.90;;;;;;5015907;28;20049;-79
2023/09/05 01:27:48;;;;;;;3.30;1.60;;;18.50;99.90;;;;;;5016455;28;20104;-78
2023/09/05 01:30:16;;;;;;;4.72;1.75;;;18.50;99.90;;;;;;5014852;28;20093;-78
2023/09/05 01:32:43;;;;;;;2.75;1.63;;;18.50;99.90;;;;;;5001105;28;20144;-77
2023/09/05 01:35:10;;;;;;;7.35;1.90;;;18.40;99.90;;;;;;5014925;28;20056;-79
2023/09/05 01:37:36;;;;;;;2.65;1.60;;;18.40;99.90;;;;;;5020311;28;20088;-78
2023/09/05 01:40:04;;;;;;;2.90;1.92;;;18.40;99.90;;;;;;5015239;28;20715;-77
2023/09/05 01:42:31;;;;;;;2.58;2.00;;;18.40;99.90;;;;;;5016233;28;20050;-79
2023/09/05 01:44:58;;;;;;;3.05;2.08;;;18.40;99.90;;;;;;5013940;28;20104;-78
2023/09/05 01:47:25;;;;;;;4.45;1.98;;;18.40;99.90;;;;;;5002548;28;20128;-79
2023/09/05 01:49:51;;;;;;;5.20;2.03;;;18.30;99.90;;;;;;5015547;28;20458;-77
2023/09/05 01:52:18;;;;;;;3.67;2.28;;;18.30;99.90;;;;;;5017963;28;20626;-78
2023/09/05 01:54:45;;;;;;;2.65;1.90;;;18.30;99.90;;;;;;5000539;28;20517;-78
2023/09/05 01:57:11;;;;;;;4.10;2.10;;;18.30;99.90;;;;;;5014888;28;20136;-79
2023/09/05 01:59:38;;;;;;;2.53;2.05;;;18.20;99.90;;;;;;5013916;28;20476;-78
2023/09/05 02:02:05;;;;;;;4.43;2.20;;;18.20;99.90;;;;;;5018937;28;20129;-78
2023/09/05 02:04:31;;;;;;;6.60;2.03;;;18.20;99.90;;;;;;5017118;28;20042;-78
2023/09/05 02:06:58;;;;;;;2.95;2.05;;;18.20;99.90;;;;;;5017813;28;20077;-79
2023/09/05 02:09:25;;;;;;;5.72;2.40;;;18.20;99.90;;;;;;5017290;28;20088;-79
2023/09/05 02:11:52;;;;;;;4.75;2.20;;;18.10;99.90;;;;;;5015554;28;20108;-78
2023/09/05 02:14:18;;;;;;;5.88;2.45;;;18.10;99.90;;;;;;4995959;28;20116;-78
2023/09/05 02:16:45;;;;;;;3.17;2.13;;;18.10;99.90;;;;;;5021894;28;20076;-77
2023/09/05 02:19:12;;;;;;;2.78;2.15;;;18.10;99.90;;;;;;5013541;28;20050;-78
2023/09/05 02:21:38;;;;;;;4.78;2.35;;;18.10;99.90;;;;;;5020401;28;20070;-78
2023/09/05 02:24:05;;;;;;;3.20;2.28;;;18.00;99.90;;;;;;5015507;28;20073;-78
2023/09/05 02:26:32;;;;;;;3.35;2.25;;;18.00;99.90;;;;;;5014347;28;20046;-79
2023/09/05 02:28:59;;;;;;;2.58;2.15;;;18.00;99.90;;;;;;5014778;28;20081;-79
2023/09/05 02:31:25;;;;;;;4.85;2.50;;;18.00;99.90;;;;;;5019838;28;20092;-78
2023/09/05 02:33:52;;;;;;;4.40;2.40;;;18.00;99.90;;;;;;5015980;28;20132;-78
2023/09/05 02:36:20;;;;;;;5.53;2.28;;;18.00;99.90;;;;;;5017239;28;20061;-79
2023/09/05 02:38:47;;;;;;;4.13;2.58;;;17.90;99.90;;;;;;5015034;28;20425;-78
2023/09/05 02:41:16;;;;;;;5.78;2.42;;;17.90;99.90;;;;;;5013543;28;20061;-79
2023/09/05 02:43:43;;;;;;;4.10;3.33;;;17.90;99.90;;;;;;5016004;28;20142;-79
2023/09/05 02:46:10;;;;;;;4.50;2.90;;;17.80;99.90;;;;;;5018830;28;20050;-79
2023/09/05 02:48:39;;;;;;;5.22;2.47;;;17.80;99.90;;;;;;5018376;28;20046;-78
2023/09/05 02:51:11;;;;;;;6.63;2.97;;;17.80;99.90;;;;;;5016490;28;20096;-78
2023/09/05 02:53:38;;;;;;;6.55;2.97;;;17.80;99.90;;;;;;5013747;28;20049;-78
2023/09/05 02:56:05;;;;;;;4.20;2.95;;;17.80;99.90;;;;;;5013076;28;20421;-78
2023/09/05 02:58:32;;;;;;;5.13;3.15;;;17.70;99.90;;;;;;4998039;28;20145;-77
2023/09/05 03:01:04;;;;;;;4.95;3.45;;;17.70;99.90;;;;;;5021152;28;20057;-77
2023/09/05 03:03:31;;;;;;;6.05;2.60;;;17.70;99.90;;;;;;5015301;28;20096;-77
2023/09/05 03:06:08;;;;;;;6.18;3.15;;;17.70;99.90;;;;;;5015029;28;20560;-77
2023/09/05 03:08:36;;;;;;;5.22;3.15;;;17.70;99.90;;;;;;4993557;28;20104;-77
2023/09/05 03:11:03;;;;;;;7.93;2.90;;;17.70;99.90;;;;;;4996598;28;20060;-77
2023/09/05 03:13:30;;;;;;;4.55;2.97;;;17.70;99.90;;;;;;5013924;28;20137;-77
2023/09/05 03:15:57;;;;;;;3.60;3.00;;;17.60;99.90;;;;;;5019983;28;20084;-78
2023/09/05 03:18:25;;;;;;;3.60;2.85;;;17.60;99.90;;;;;;5017422;28;20048;-77
2023/09/05 03:20:52;;;;;;;4.88;3.05;;;17.60;99.90;;;;;;5017755;28;20073;-77
2023/09/05 03:23:19;;;;;;;6.55;2.97;;;17.60;99.90;;;;;;5016567;28;20100;-76
2023/09/05 03:25:46;;;;;;;9.95;3.80;;;17.50;99.90;;;;;;5020350;28;20056;-78
2023/09/05 03:28:14;;;;;;;4.85;3.28;;;17.50;99.90;;;;;;5017208;28;20409;-77
2023/09/05 03:30:41;;;;;;;3.40;2.92;;;17.50;99.90;;;;;;5022071;28;20050;-77
2023/09/05 03:33:08;;;;;;;4.75;3.10;;;17.50;99.90;;;;;;5017083;28;20097;-78
2023/09/05 03:35:35;;;;;;;5.25;3.40;;;17.50;99.90;;;;;;5018201;28;20054;-78
2023/09/05 03:38:02;;;;;;;4.68;2.92;;;17.50;99.90;;;;;;5015414;28;20081;-77
2023/09/05 03:40:30;;;;;;;4.72;2.88;;;17.40;99.90;;;;;;5021501;28;20125;-77
2023/09/05 03:42:57;;;;;;;4.22;3.28;;;17.40;99.90;;;;;;5018030;28;20105;-77
2023/09/05 03:45:23;;;;;;;5.20;2.95;;;17.40;99.90;;;;;;5019794;28;20121;-77
2023/09/05 03:47:50;;;;;;;5.75;3.00;;;17.40;99.90;;;;;;5018294;28;20561;-78
2023/09/05 03:50:27;;;;;;;3.88;3.08;;;17.40;99.90;;;;;;5016193;28;20497;-77
2023/09/05 03:52:54;;;;;;;5.97;3.40;;;17.40;99.90;;;;;;5015614;28;20057;-77
2023/09/05 03:55:20;;;;;;;7.90;3.17;;;17.30;99.90;;;;;;5022221;28;20113;-79
2023/09/05 03:57:47;;;;;;;3.78;3.20;;;17.30;99.90;;;;;;5018188;28;20046;-78
2023/09/05 04:00:14;;;;;;;3.88;2.90;;;17.30;99.90;;;;;;5017702;28;20054;-77
2023/09/05 04:02:41;;;;;;;5.00;3.28;;;17.30;99.90;;;;;;5016274;28;20096;-78
2023/09/05 04:05:08;;;;;;;5.75;3.00;;;17.30;99.90;;;;;;5015457;28;20085;-77
2023/09/05 04:07:35;;;;;;;4.70;3.42;;;17.20;99.90;;;;;;5015082;28;20077;-77
2023/09/05 04:10:03;;;;;;;5.85;3.72;;;17.20;99.90;;;;;;5019950;28;20099;-77
2023/09/05 04:12:31;;;;;;;5.00;3.50;;;17.20;99.90;;;;;;5015782;28;20486;-78
2023/09/05 04:14:57;;;;;;;5.38;3.00;;;17.20;99.90;;;;;;5016676;28;20057;-77
2023/09/05 04:17:24;;;;;;;4.90;3.28;;;17.20;99.90;;;;;;5016677;28;20120;-77
2023/09/05 04:19:54;;;;;;;7.78;3.72;;;17.10;99.90;;;;;;5015367;28;20046;-77
2023/09/05 04:22:24;;;;;;;6.18;3.10;;;17.10;99.90;;;;;;5015914;28;20050;-77
2023/09/05 04:24:54;;;;;;;4.03;2.97;;;17.10;99.90;;;;;;5020475;28;20140;-77
2023/09/05 04:27:21;;;;;;;;;;;17.10;99.90;;;;;;5015394;28;20050;-79
2023/09/05 04:29:51;;;;;;;;;;;17.10;99.90;;;;;;5019923;28;19921;-78
2023/09/05 04:32:26;;;;;;;;;;;17.00;99.90;;;;;;5018272;28;19949;-78
2023/09/05 04:35:03;;;;;;;;;;;17.00;99.90;;;;;;5017441;28;19979;-78
2023/09/05 04:37:30;;;;;;;;;;;17.00;99.90;;;;;;5017051;28;19921;-79
2023/09/05 04:39:56;;;;;;;;;;;17.00;99.90;;;;;;5024220;28;19943;-79
2023/09/05 04:42:24;;;;;;;;;;;16.90;99.90;;;;;;5025980;28;19921;-79
2023/09/05 04:44:51;;;;;;;;;;;16.90;99.90;;;;;;5034660;28;19921;-78
2023/09/05 04:47:19;;;;;;;;;;;16.90;99.90;;;;;;5023581;28;19933;-78
2023/09/05 04:49:45;;;;;;;;;;;16.90;99.90;;;;;;5024951;28;19960;-79
2023/09/05 04:52:12;;;;;;;;;;;16.80;99.90;;;;;;5024521;28;20392;-78
2023/09/05 04:54:38;;;;;;;;;;;16.80;99.90;;;;;;5021132;28;20393;-78
2023/09/05 04:57:05;;;;;;;;;;;16.80;99.90;;;;;;5016912;28;19960;-77
2023/09/05 04:59:32;;;;;;;;;;;16.80;99.90;;;;;;5016243;28;20387;-77
2023/09/05 05:01:58;;;;;;;;;;;16.80;99.90;;;;;;5015523;28;19980;-76
2023/09/05 05:04:25;;;;;;;;;;;16.80;99.90;;;;;;5014990;28;19929;-78
2023/09/05 05:06:52;;;;;;;;;;;16.80;99.90;;;;;;5017686;28;20016;-77
2023/09/05 05:09:19;;;;;;;;;;;16.80;99.90;;;;;;5020724;28;19984;-78
2023/09/05 05:11:45;;;;;;;;;;;16.80;99.90;;;;;;5040119;23;19964;-78
2023/09/05 05:14:12;;;;;;;;;;;16.80;99.90;;;;;;5018022;28;19929;-79
2023/09/05 05:16:38;;;;;;;;;;;16.80;99.90;;;;;;5015354;28;20025;-77
2023/09/05 05:19:05;;;;;;;;;;;16.80;99.90;;;;;;5018255;28;20353;-79
2023/09/05 05:21:32;;;;;;;;;;;16.80;99.90;;;;;;5017551;28;19964;-79
2023/09/05 05:23:58;;;;;;;;;;;16.80;99.90;;;;;;5013005;28;19922;-79
2023/09/05 05:26:25;;;;;;;;;;;16.80;99.90;;;;;;5004345;28;19964;-79
2023/09/05 05:28:52;;;;;;;;;;;16.80;99.90;;;;;;5005557;28;19968;-79
2023/09/05 05:31:18;;;;;;;;;;;16.80;99.90;;;;;;5006332;28;19921;-80
2023/09/05 05:33:45;;;;;;;;;;;16.70;99.90;;;;;;5004615;28;20012;-79
2023/09/05 05:36:12;;;;;;;;;;;16.80;99.90;;;;;;5007688;28;19983;-78
2023/09/05 05:38:41;;;;;;;;;;;16.80;99.90;;;;;;4993015;28;19926;-79
2023/09/05 05:41:09;;;;;;;;;;;16.80;99.90;;;;;;5005317;28;19926;-79
2023/09/05 05:43:36;;;;;;;;;;;16.80;99.90;;;;;;5002603;28;19979;-78
2023/09/05 05:46:02;;;;;;;;;;;16.80;99.90;;;;;;5008520;28;19980;-79
2023/09/05 05:48:29;;;;;;;;;;;16.80;99.90;;;;;;4985797;28;20001;-79
2023/09/05 05:50:56;;;;;;;;;;;16.90;99.90;;;;;;5006478;28;20008;-79
2023/09/05 05:53:26;;;;;;;;;;;16.90;99.90;;;;;;5007767;28;20366;-79
2023/09/05 05:55:52;;;;;;;;;;;16.90;99.90;;;;;;5003305;28;20012;-79
2023/09/05 05:58:19;;;;;;;;;;;17.00;99.90;;;;;;5001466;28;19967;-79
2023/09/05 06:00:52;;;;;;;;;;;17.00;99.90;;;;;;5006927;28;20455;-79
2023/09/05 06:03:19;;;;;;;;;;;17.00;99.90;;;;;;5006713;28;19968;-78
2023/09/05 06:05:46;;;;;;;;;;;17.00;99.90;;;;;;5004513;28;19921;-78
2023/09/05 06:08:13;;;;;;;;;;;17.10;99.90;;;;;;4989550;28;20440;-79
2023/09/05 06:10:40;;;;;;;;;;;17.10;99.90;;;;;;5003823;28;19932;-79
2023/09/05 06:13:11;;;;;;;;;;;17.10;99.90;;;;;;4999547;28;20557;-79
2023/09/05 06:15:38;;;;;;;;;;;17.10;99.90;;;;;;5006416;28;19921;-79
2023/09/05 06:18:06;;;;;;;;;;;17.10;99.90;;;;;;4989663;28;19921;-80
2023/09/05 06:20:32;;;;;;;;;;;17.20;99.90;;;;;;5004756;28;19921;-80
2023/09/05 06:22:59;;;;;;;;;;;17.20;99.90;;;;;;5007832;28;19929;-79
2023/09/05 06:25:27;;;;;;;;;;;17.30;99.90;;;;;;5008705;28;19925;-79
2023/09/05 06:27:53;;;;;;;;;;;17.30;99.90;;;;;;5000948;28;19964;-79
2023/09/05 06:30:21;;;;;;;;;;;17.30;99.90;;;;;;5009366;28;19961;-79
2023/09/05 06:32:48;;;;;;;;;;;17.40;99.90;;;;;;5009666;28;19922;-80
2023/09/05 06:35:15;;;;;;;;;;;17.30;99.90;;;;;;5004457;28;20378;-79
2023/09/05 06:37:42;;;;;;;;;;;17.40;99.90;;;;;;5003771;28;19975;-78
2023/09/05 06:40:12;;;;;;;;;;;17.40;99.90;;;;;;5011129;28;19921;-79
2023/09/05 06:42:42;;;;;;;;;;;17.50;99.90;;;;;;4995262;28;19968;-79
2023/09/05 06:45:09;;;;;;;;;;;17.50;99.90;;;;;;4988530;28;19925;-79
2023/09/05 06:47:36;;;;;;;;;;;17.50;99.90;;;;;;5009260;28;19964;-79
2023/09/05 06:50:05;;;;;;;;;;;17.60;99.90;;;;;;5007781;28;19929;-79
2023/09/05 06:52:32;;;;;;;;;;;17.60;99.90;;;;;;5010721;28;19925;-80
2023/09/05 06:54:58;;;;;;;;;;;17.70;99.90;;;;;;5011911;28;19922;-80
2023/09/05 06:57:26;;;;;;;;;;;17.70;99.90;;;;;;5001419;28;20433;-79
2023/09/05 06:59:53;;;;;;;;;;;17.80;99.90;;;;;;5009007;28;19964;-79
2023/09/05 07:02:19;;;;;;;;;;;17.80;99.90;;;;;;5013125;28;19960;-78
2023/09/05 07:04:46;;;;;;;;;;;17.90;99.90;;;;;;4985962;28;19921;-79
2023/09/05 07:07:13;;;;;;;;;;;17.90;99.90;;;;;;5006343;28;19921;-79
2023/09/05 07:09:39;;;;;;;;;;;18.00;99.90;;;;;;5012518;28;19972;-79
2023/09/05 07:12:07;;;;;;;;;;;18.00;99.90;;;;;;4999550;28;20030;-79
2023/09/05 07:14:34;;;;;;;;;;;18.10;99.90;;;;;;5009553;28;19925;-79
2023/09/05 07:17:01;;;;;;;;;;;18.20;99.90;;;;;;5010814;28;20278;-79
2023/09/05 07:19:29;;;;;;;;;;;18.20;99.90;;;;;;5005816;28;20420;-79
2023/09/05 07:21:57;;;;;;;;;;;18.20;99.90;;;;;;5005402;28;19955;-79
2023/09/05 07:24:24;;;;;;;;;;;18.30;99.90;;;;;;5010882;28;20477;-79
2023/09/05 07:26:50;;;;;;;;;;;18.40;99.90;;;;;;5007090;28;20024;-79
2023/09/05 07:29:17;;;;;;;;;;;18.40;99.90;;;;;;4990969;28;20404;-76
2023/09/05 07:31:44;;;;;;;;;;;18.50;99.90;;;;;;5010877;28;19979;-78
2023/09/05 07:34:10;;;;;;;;;;;18.50;99.90;;;;;;5001267;28;20169;-77
2023/09/05 07:36:39;;;;;;;;;;;18.60;99.90;;;;;;5002676;28;19921;-77
2023/09/05 07:39:06;;;;;;;;;;;18.70;99.90;;;;;;5009034;28;20385;-77
2023/09/05 07:41:33;;;;;;;;;;;18.70;99.90;;;;;;5004944;28;19925;-77
2023/09/05 07:43:59;;;;;;;;;;;18.80;99.90;;;;;;5007715;28;19921;-77
2023/09/05 07:46:27;;;;;;;;;;;18.90;99.90;;;;;;5009015;28;19967;-77
2023/09/05 07:48:53;;;;;;;;;;;19.00;99.90;;;;;;5006038;28;20008;-77
2023/09/05 07:51:23;;;;;;;;;;;19.00;99.90;;;;;;5001092;28;19922;-77
2023/09/05 07:54:00;;;;;;;;;;;19.10;99.90;;;;;;4990911;28;20000;-77
2023/09/05 07:56:29;;;;;;;;;;;19.20;99.90;;;;;;5004095;28;19972;-78
2023/09/05 07:58:56;;;;;;;;;;;19.20;99.90;;;;;;5006447;28;20412;-77
2023/09/05 08:01:23;;;;;;;;;;;19.30;99.90;;;;;;5008360;28;19922;-77
2023/09/05 08:03:50;;;;;;;;;;;19.40;99.90;;;;;;5007412;28;19949;-77
2023/09/05 08:06:17;;;;;;;;;;;19.50;99.90;;;;;;5001685;28;19922;-78
2023/09/05 08:08:44;;;;;;;;;;;19.50;99.90;;;;;;5007186;28;19950;-77
2023/09/05 08:11:11;;;;;;;;;;;19.50;99.90;;;;;;5009067;28;19979;-78
2023/09/05 08:13:37;;;;;;;;;;;19.60;99.90;;;;;;5004261;28;19928;-78
2023/09/05 08:16:05;;;;;;;;;;;19.70;99.90;;;;;;5007246;28;19965;-77
2023/09/05 08:18:32;;;;;;;;;;;19.70;99.90;;;;;;5008304;28;19930;-77
2023/09/05 08:20:59;;;;;;;;;;;19.80;99.90;;;;;;5000657;28;19929;-77
2023/09/05 08:23:26;;;;;;;;;;;19.90;99.90;;;;;;5005547;28;20008;-76
2023/09/05 08:25:56;;;;;;;;;;;19.90;99.90;;;;;;5006556;28;20344;-77
2023/09/05 08:28:26;;;;;;;;;;;20.10;99.90;;;;;;5003872;28;19925;-77
2023/09/05 08:31:00;;;;;;;;;;;20.10;99.90;;;;;;5003500;28;19928;-76
2023/09/05 08:33:30;;;;;;;;;;;20.20;99.90;;;;;;5007520;28;19962;-78
2023/09/05 08:35:57;;;;;;;;;;;20.20;99.90;;;;;;4999411;28;20013;-77
2023/09/05 08:38:23;;;;;;;;;;;20.30;99.90;;;;;;5004825;28;19968;-77
2023/09/05 08:40:53;;;;;;;;;;;20.40;99.90;;;;;;5005672;28;20369;-77
2023/09/05 08:43:20;;;;;;;;;;;20.50;99.90;;;;;;5003874;28;19969;-77
2023/09/05 08:45:48;;;;;;;;;;;20.50;99.90;;;;;;5005004;28;20381;-78
2023/09/05 08:48:15;;;;;;;;;;;20.50;99.90;;;;;;5010920;28;20008;-78
2023/09/05 08:50:42;;;;;;;;;;;20.60;99.90;;;;;;4999001;28;19925;-78
2023/09/05 08:53:12;;;;;;;;;;;20.60;99.90;;;;;;5003590;28;19925;-79
2023/09/05 08:55:40;;;;;;;;;;;20.70;99.90;;;;;;5011071;28;19976;-78
2023/09/05 08:58:11;;;;;;;;;;;20.80;99.90;;;;;;5003296;28;19964;-78
2023/09/05 09:00:38;;;;;;;;;;;20.80;99.90;;;;;;5002189;28;19922;-78
2023/09/05 09:03:05;;;;;;;;;;;20.90;99.90;;;;;;5009958;28;19984;-78
2023/09/05 09:05:32;;;;;;;;;;;21.00;99.90;;;;;;4999849;28;20024;-78
2023/09/05 09:07:59;;;;;;;;;;;21.00;99.90;;;;;;5005024;28;19975;-78
2023/09/05 09:10:26;;;;;;;;;;;21.10;99.90;;;;;;4986930;28;19925;-78
2023/09/05 09:12:56;;;;;;;;;;;21.10;99.90;;;;;;5001343;28;19929;-78
2023/09/05 09:15:25;;;;;;;;;;;21.10;99.90;;;;;;5003159;28;19921;-78
2023/09/05 09:17:52;;;;;;;;;;;21.20;99.90;;;;;;5008540;28;19996;-78
2023/09/05 09:20:19;;;;;;;;;;;21.20;99.90;;;;;;4981102;28;19976;-77
2023/09/05 09:22:50;;;;;;;;;;;21.30;99.90;;;;;;5003818;28;20292;-78
2023/09/05 09:25:26;;;;;;;;;;;21.40;99.90;;;;;;5008731;28;19921;-78
2023/09/05 09:27:53;;;;;;;;;;;21.40;99.90;;;;;;5002488;28;19925;-77
2023/09/05 09:30:22;;;;;;;;;;;21.40;99.90;;;;;;5001831;28;19921;-78
2023/09/05 09:32:52;;;;;;;;;;;21.50;99.90;;;;;;5008955;28;19928;-79
2023/09/05 09:35:19;;;;;;;;;;;21.50;99.90;;;;;;4978204;28;19941;-77
2023/09/05 09:37:49;;;;;;;;;;;21.50;99.90;;;;;;5005834;28;20013;-77
2023/09/05 09:40:16;;;;;;;;;;;21.60;99.90;;;;;;5008432;28;19926;-78
2023/09/05 09:42:49;;;;;;;;;;;21.70;99.90;;;;;;4997898;28;19976;-77
2023/09/05 09:45:17;;;;;;;;;;;21.70;99.90;;;;;;4994274;28;19965;-78
2023/09/05 09:47:47;;;;;;;;;;;21.70;99.90;;;;;;5007367;28;19975;-77
2023/09/05 09:50:16;;;;;;;;;;;21.80;99.90;;;;;;4988115;28;19926;-78
2023/09/05 09:52:44;;;;;;;;;;;21.90;99.90;;;;;;5003734;28;20296;-78
2023/09/05 09:55:11;;;;;;;;;;;21.90;99.90;;;;;;5007277;28;20021;-77
2023/09/05 09:57:45;;;;;;;;;;;21.90;99.90;;;;;;4985232;28;20424;-78
2023/09/05 10:00:15;;;;;;;;;;;22.00;99.90;;;;;;4999333;28;19972;-78
2023/09/05 10:02:45;;;;;;;;;;;22.00;99.90;;;;;;5005288;28;19984;-78
2023/09/05 10:05:15;;;;;;;;;;;22.10;99.90;;;;;;5008217;28;19965;-77
2023/09/05 10:07:43;;;;;;;;;;;22.10;99.90;;;;;;4984695;28;20416;-78
2023/09/05 10:10:17;;;;;;;;;;;22.20;99.90;;;;;;5006851;28;20040;-78
2023/09/05 10:12:45;;;;;;;;;;;22.30;99.90;;;;;;4978507;28;19976;-78
2023/09/05 10:15:13;;;;;;;;;;;22.30;99.90;;;;;;5000225;28;20364;-79
2023/09/05 10:17:41;;;;;;;;;;;22.30;99.90;;;;;;5006500;28;19921;-78
2023/09/05 10:20:09;;;;;;;;;;;22.40;99.90;;;;;;5007650;28;19922;-78
2023/09/05 10:22:39;;;;;;;;;;;22.40;99.90;;;;;;5002625;28;20004;-77
2023/09/05 10:25:07;;;;;;;;;;;22.50;99.90;;;;;;5006385;28;19925;-78
2023/09/05 10:27:34;;;;;;;;;;;22.50;99.90;;;;;;5005298;28;19984;-77
2023/09/05 10:30:01;;;;;;;;;;;22.60;99.90;;;;;;4999540;28;20278;-77
2023/09/05 10:32:27;;;;;;;;;;;22.60;99.90;;;;;;5004916;28;20397;-77
2023/09/05 10:34:55;;;;;;;;;;;22.60;99.90;;;;;;5006613;28;19921;-78
2023/09/05 10:37:22;;;;;;;;;;;22.60;99.90;;;;;;5003808;28;19976;-78
2023/09/05 10:39:50;;;;;;;;;;;22.70;99.90;;;;;;5005005;28;20296;-77
2023/09/05 10:42:17;;;;;;;;;;;22.80;99.90;;;;;;5006231;28;19922;-77
2023/09/05 10:44:47;;;;;;;;;;;22.90;99.90;;;;;;4997995;28;20388;-77
2023/09/05 10:47:25;;;;;;;;;;;22.90;99.90;;;;;;5005630;28;19922;-78
2023/09/05 10:49:59;;;;;;;;;;;22.90;99.90;;;;;;5007538;28;20408;-78
2023/09/05 10:52:28;;;;;;;;;;;23.10;99.90;;;;;;5000657;28;20399;-78
2023/09/05 10:54:59;;;;;;;;;;;23.10;99.90;;;;;;5003947;28;20083;-78
2023/09/05 10:57:34;;;;;;;;;;;23.20;99.90;;;;;;5005721;28;20004;-78
2023/09/05 11:00:16;;;;;;;;;;;23.20;99.90;;;;;;4998337;28;19922;-78
2023/09/05 11:02:43;;;;;;;;;;;23.30;99.90;;;;;;5005988;28;19925;-78
2023/09/05 11:05:19;;;;;;;;;;;23.40;99.90;;;;;;5006091;28;19925;-77
2023/09/05 11:07:48;;;;;;;;;;;23.50;99.90;;;;;;4997889;28;19984;-77
2023/09/05 11:10:28;;;;;;;;;;;23.50;99.90;;;;;;5004804;28;19925;-78
2023/09/05 11:12:55;;;;;;;;;;;23.50;99.90;;;;;;5002674;28;19921;-78
2023/09/05 11:15:30;;;;;;;;;;;23.60;99.90;;;;;;4997662;28;20005;-78
2023/09/05 11:18:00;;;;;;;;;;;23.60;99.90;;;;;;5004370;28;20019;-78
2023/09/05 11:20:39;;;;;;;;;;;23.60;99.90;;;;;;5002687;28;20055;-78
2023/09/05 11:23:34;;;;;;;;;;;23.70;99.90;;;;;;5000829;28;19952;-78
2023/09/05 11:26:03;;;;;;;;;;;23.80;99.90;;;;;;5003083;28;19961;-78
2023/09/05 11:28:30;;;;;;;;;;;23.80;99.90;;;;;;5001066;28;19965;-80
2023/09/05 11:31:02;;;;;;;;;;;23.90;99.90;;;;;;5003764;28;19922;-78
2023/09/05 11:33:31;;;;;;;;;;;23.90;99.90;;;;;;5005743;28;19928;-78
2023/09/05 11:36:03;;;;;;;;;;;23.90;99.90;;;;;;5003876;28;20011;-78
2023/09/05 11:38:43;;;;;;;;;;;24.00;99.90;;;;;;4986131;28;19972;-78
2023/09/05 11:41:10;;;;;;;;;;;24.00;99.90;;;;;;5008528;28;20376;-77
2023/09/05 11:43:44;;;;;;;;;;;24.00;99.90;;;;;;5004844;28;19921;-77
2023/09/05 11:46:11;;;;;;;;;;;24.00;99.90;;;;;;5008769;28;20020;-78
2023/09/05 11:48:37;;;;;;;;;;;24.10;99.90;;;;;;5006219;28;19975;-78
2023/09/05 11:51:04;;;;;;;;;;;24.10;99.90;;;;;;5007848;28;19983;-78
2023/09/05 11:53:31;;;;;;;;;;;24.10;99.90;;;;;;5003949;28;19928;-78
2023/09/05 11:55:58;;;;;;;;;;;24.10;99.90;;;;;;5009691;28;20382;-78
2023/09/05 11:58:26;;;;;;;;;;;24.20;99.90;;;;;;5006592;28;20040;-78
2023/09/05 12:00:54;;;;;;;;;;;24.30;99.90;;;;;;5007237;28;19925;-78
2023/09/05 12:03:21;;;;;;;;;;;24.30;99.90;;;;;;4992562;28;19932;-78
2023/09/05 12:05:49;;;;;;;;;;;24.30;99.90;;;;;;5008916;28;19929;-78
2023/09/05 12:08:17;;;;;;;;;;;24.40;99.90;;;;;;5001515;28;19965;-78
2023/09/05 12:11:02;;;;;;;;;;;24.40;99.90;;;;;;5007455;28;19922;-78
2023/09/05 12:13:37;;;;;;;;;;;24.50;99.90;;;;;;5009444;28;19922;-78
2023/09/05 12:16:05;;;;;;;;;;;24.60;99.90;;;;;;5003574;28;19922;-77
2023/09/05 12:18:32;;;;;;;;;;;24.60;99.90;;;;;;4991112;28;19932;-78
2023/09/05 12:21:02;;;;;;;;;;;24.70;99.90;;;;;;5007120;28;19964;-78
2023/09/05 12:23:29;;;;;;;;;;;24.70;99.90;;;;;;5002155;28;19984;-78
2023/09/05 12:25:57;;;;;;;;;;;24.70;99.90;;;;;;5008030;28;19921;-78
2023/09/05 12:28:25;;;;;;;;;;;24.70;99.90;;;;;;5009913;28;20024;-78
2023/09/05 12:31:05;;;;;;;;;;;24.70;99.90;;;;;;5005368;28;19929;-78
2023/09/05 12:33:32;;;;;;;;;;;24.80;99.90;;;;;;5008570;28;19927;-77
2023/09/05 12:35:58;;;;;;;;;;;24.80;99.90;;;;;;5008901;28;19980;-78
2023/09/05 12:38:25;;;;;;;;;;;24.80;99.90;;;;;;5001624;28;19928;-77
2023/09/05 12:40:54;;;;;;;;;;;24.90;99.90;;;;;;4996591;28;19925;-78
2023/09/05 12:43:20;;;;;;;;;;;24.90;99.90;;;;;;5009787;28;20028;-78
2023/09/05 12:45:48;;;;;;;;;;;25.00;99.90;;;;;;4987822;28;19922;-77
2023/09/05 12:48:15;;;;;;;;;;;25.00;99.90;;;;;;5006258;28;20421;-77
2023/09/05 12:50:45;;;;;;;;;;;25.00;99.90;;;;;;5009534;28;19926;-78
2023/09/05 12:53:13;;;;;;;;;;;25.10;99.90;;;;;;5002054;28;20411;-80
2023/09/05 12:55:41;;;;;;;;;;;25.20;99.90;;;;;;5009377;28;19956;-77
2023/09/05 12:58:09;;;;;;;;;;;25.20;99.90;;;;;;5008575;28;19929;-76
2023/09/05 13:00:36;;;;;;;;;;;25.30;99.90;;;;;;5004720;28;19945;-77
2023/09/05 13:03:05;;;;;;;;;;;25.30;99.90;;;;;;5005452;28;19933;-76
2023/09/05 13:05:32;;;;;;;;;;;25.30;99.90;;;;;;5010278;28;20017;-77
2023/09/05 13:07:59;;;;;;;;;;;25.30;99.90;;;;;;4998448;28;19921;-77
2023/09/05 13:10:27;;;;;;;;;;;25.30;99.90;;;;;;5039707;23;19952;-83
2023/09/05 13:12:54;;;;;;;;;;;25.40;99.90;;;;;;5028714;28;20504;-83
2023/09/05 13:15:26;;;;;;;;;;;25.40;99.90;;;;;;5020139;28;19965;-83
2023/09/05 13:17:53;;;;;;;;;;;25.40;99.90;;;;;;5025462;28;19932;-83
2023/09/05 13:20:20;;;;;;;;;;;25.40;99.90;;;;;;5029045;28;19949;-83
2023/09/05 13:22:50;;;;;;;;;;;25.50;99.90;;;;;;5015033;28;19921;-83
2023/09/05 13:25:21;;;;;;;;;;;25.50;99.90;;;;;;5022847;28;19922;-82
2023/09/05 13:27:49;;;;;;;;;;;25.40;99.90;;;;;;5024557;28;19909;-82
2023/09/05 13:30:17;;;;;;;;;;;25.40;99.90;;;;;;5017346;28;19939;-81
2023/09/05 13:32:44;;;;;;;;;;;25.30;99.90;;;;;;5016317;28;19925;-83
2023/09/05 13:35:11;;;;;;;;;;;25.30;99.90;;;;;;5023348;28;20534;-82
2023/09/05 13:37:37;;;;;;;;;;;25.30;99.90;;;;;;5013435;28;19944;-83
2023/09/05 13:40:04;;;;;;;;;;;25.40;99.90;;;;;;5018646;28;19976;-82
2023/09/05 13:42:32;;;;;;;;;;;25.40;99.90;;;;;;5023348;28;19997;-84
2023/09/05 13:44:59;;;;;;;;;;;25.50;99.90;;;;;;5010051;28;19922;-82
2023/09/05 13:47:26;;;;;;;;;;;25.50;99.90;;;;;;5016926;28;19945;-82
2023/09/05 13:49:53;;;;;;;;;;;25.60;99.90;;;;;;5025130;28;19928;-83
2023/09/05 13:52:21;;;;;;;;;;;25.70;99.90;;;;;;5020283;28;19928;-83